createdAt,value
2023-11-30T00:00:17.568Z,64.15
2023-11-30T00:02:48.384Z,64.28
2023-11-30T00:05:22.790Z,64.02
2023-11-30T00:07:54.577Z,63.87
2023-11-30T00:10:25.390Z,63.69
2023-11-30T00:12:56.554Z,63.68
2023-11-30T00:15:27.426Z,63.51
2023-11-30T00:17:58.398Z,63.53
2023-11-30T00:20:29.309Z,63.66
2023-11-30T00:23:00.073Z,63.64
2023-11-30T00:25:30.837Z,63.57
2023-11-30T00:28:01.684Z,63.81
2023-11-30T00:30:32.566Z,63.83
2023-11-30T00:33:03.645Z,63.86
2023-11-30T00:35:34.529Z,63.95
2023-11-30T00:38:05.518Z,64.07
2023-11-30T00:40:38.964Z,63.98
2023-11-30T00:43:10.032Z,63.97
2023-11-30T00:45:40.944Z,64.13
2023-11-30T00:48:11.899Z,64.17
2023-11-30T00:50:42.861Z,64.19
2023-11-30T00:53:13.745Z,64.05
2023-11-30T00:55:44.533Z,64.04
2023-11-30T00:58:15.329Z,64.27
2023-11-30T01:00:46.641Z,64.10
2023-11-30T01:03:17.471Z,64.05
2023-11-30T01:05:48.322Z,63.99
2023-11-30T01:08:19.107Z,64.15
2023-11-30T01:10:49.943Z,63.92
2023-11-30T01:13:20.701Z,63.94
2023-11-30T01:15:51.693Z,63.93
2023-11-30T01:18:22.593Z,63.78
2023-11-30T01:20:53.417Z,63.70
2023-11-30T01:23:24.400Z,63.80
2023-11-30T01:25:55.139Z,63.94
2023-11-30T01:28:25.995Z,63.97
2023-11-30T01:30:56.729Z,63.89
2023-11-30T01:33:27.639Z,64.08
2023-11-30T01:35:58.523Z,64.07
2023-11-30T01:38:30.202Z,64.19
2023-11-30T01:41:00.969Z,64.03
2023-11-30T01:43:31.769Z,64.02
2023-11-30T01:46:04.311Z,64.20
2023-11-30T01:48:35.753Z,64.19
2023-11-30T01:51:09.366Z,64.14
2023-11-30T01:53:40.897Z,64.13
2023-11-30T01:56:13.382Z,63.96
2023-11-30T01:58:45.074Z,64.09
2023-11-30T02:01:16.029Z,64.14
2023-11-30T02:03:47.553Z,64.23
2023-11-30T02:06:20.333Z,64.40
2023-11-30T02:08:51.364Z,64.49
2023-11-30T02:11:22.295Z,64.40
2023-11-30T02:13:53.438Z,64.23
2023-11-30T02:16:24.318Z,64.34
2023-11-30T02:18:55.236Z,64.30
2023-11-30T02:21:26.240Z,64.53
2023-11-30T02:23:57.112Z,64.52
2023-11-30T02:26:27.903Z,64.39
2023-11-30T02:28:58.622Z,64.31
2023-11-30T02:31:29.436Z,64.31
2023-11-30T02:34:00.329Z,64.18
2023-11-30T02:36:31.168Z,64.34
2023-11-30T02:39:02.053Z,64.15
2023-11-30T02:41:32.843Z,64.30
2023-11-30T02:44:03.686Z,64.10
2023-11-30T02:46:34.549Z,64.11
2023-11-30T02:49:05.317Z,64.47
2023-11-30T02:51:36.851Z,64.36
2023-11-30T02:54:07.684Z,64.31
2023-11-30T02:56:42.878Z,64.25
2023-11-30T02:59:13.608Z,64.19
2023-11-30T03:01:48.528Z,64.12
2023-11-30T03:04:20.161Z,64.09
2023-11-30T03:06:52.800Z,64.31
2023-11-30T03:09:23.695Z,64.36
2023-11-30T03:11:55.117Z,64.26
2023-11-30T03:14:25.842Z,64.33
2023-11-30T03:16:57.753Z,64.51
2023-11-30T03:19:29.001Z,64.56
2023-11-30T03:21:59.791Z,64.65
2023-11-30T03:24:31.698Z,64.51
2023-11-30T03:27:02.524Z,64.38
2023-11-30T03:29:33.245Z,64.45
2023-11-30T03:32:04.011Z,64.16
2023-11-30T03:34:34.880Z,64.19
2023-11-30T03:37:05.871Z,64.29
2023-11-30T03:39:36.781Z,64.14
2023-11-30T03:42:08.146Z,64.04
2023-11-30T03:44:38.918Z,64.15
2023-11-30T03:47:09.721Z,64.24
2023-11-30T03:49:40.971Z,64.31
2023-11-30T03:52:11.775Z,64.47
2023-11-30T03:54:42.779Z,64.28
2023-11-30T03:57:13.823Z,64.48
2023-11-30T03:59:44.667Z,64.38
2023-11-30T04:02:15.552Z,64.31
2023-11-30T04:04:46.295Z,64.33
2023-11-30T04:07:17.127Z,64.27
2023-11-30T04:09:48.741Z,64.42
2023-11-30T04:12:19.549Z,64.72
2023-11-30T04:14:50.289Z,64.57
2023-11-30T04:17:21.059Z,64.69
2023-11-30T04:19:51.858Z,64.84
2023-11-30T04:22:23.025Z,64.95
2023-11-30T04:24:54.815Z,64.97
2023-11-30T04:27:25.670Z,65.09
2023-11-30T04:29:56.569Z,64.96
2023-11-30T04:32:27.865Z,65.35
2023-11-30T04:34:58.642Z,65.35
2023-11-30T04:37:29.482Z,65.28
2023-11-30T04:40:00.473Z,65.04
2023-11-30T04:42:31.797Z,64.97
2023-11-30T04:45:04.031Z,65.18
2023-11-30T04:47:34.849Z,65.18
2023-11-30T04:50:07.264Z,65.35
2023-11-30T04:52:38.033Z,65.48
2023-11-30T04:55:10.849Z,65.41
2023-11-30T04:57:41.617Z,65.06
2023-11-30T05:00:14.544Z,65.07
2023-11-30T05:02:56.422Z,65.01
2023-11-30T05:05:27.544Z,65.39
2023-11-30T05:07:58.291Z,65.50
2023-11-30T05:10:28.978Z,65.39
2023-11-30T05:12:59.889Z,65.50
2023-11-30T05:15:30.731Z,65.36
2023-11-30T05:18:01.689Z,65.46
2023-11-30T05:20:32.449Z,65.45
2023-11-30T05:23:03.242Z,65.70
2023-11-30T05:25:34.496Z,65.56
2023-11-30T05:28:07.732Z,65.80
2023-11-30T05:30:38.685Z,66.00
2023-11-30T05:33:13.619Z,65.67
2023-11-30T05:35:46.188Z,65.78
2023-11-30T05:38:17.011Z,65.75
2023-11-30T05:40:48.267Z,65.88
2023-11-30T05:43:21.821Z,65.67
2023-11-30T05:45:52.752Z,65.65
2023-11-30T05:48:23.881Z,65.89
2023-11-30T05:50:54.826Z,66.05
2023-11-30T05:53:25.641Z,66.05
2023-11-30T05:55:56.621Z,66.07
2023-11-30T05:58:29.775Z,65.89
2023-11-30T06:01:00.637Z,66.08
2023-11-30T06:03:32.064Z,66.29
2023-11-30T06:06:03.258Z,66.32
2023-11-30T06:08:34.111Z,66.21
2023-11-30T06:11:05.775Z,66.31
2023-11-30T06:13:36.806Z,66.52
2023-11-30T06:16:08.950Z,66.47
2023-11-30T06:18:39.754Z,66.65
2023-11-30T06:21:12.886Z,66.51
2023-11-30T06:23:45.168Z,66.68
2023-11-30T06:26:18.778Z,66.69
2023-11-30T06:28:49.597Z,66.52
2023-11-30T06:31:20.470Z,66.95
2023-11-30T06:33:51.940Z,66.50
2023-11-30T06:36:23.014Z,66.79
2023-11-30T06:38:54.155Z,66.41
2023-11-30T06:41:24.941Z,66.73
2023-11-30T06:43:56.209Z,66.93
2023-11-30T06:46:27.160Z,66.59
2023-11-30T06:48:58.612Z,66.59
2023-11-30T06:51:29.592Z,66.53
2023-11-30T06:54:00.662Z,66.89
2023-11-30T06:56:31.628Z,66.99
2023-11-30T06:59:02.693Z,66.88
2023-11-30T07:01:34.029Z,67.25
2023-11-30T07:04:09.697Z,67.24
2023-11-30T07:06:41.711Z,67.24
2023-11-30T07:09:13.694Z,67.07
2023-11-30T07:11:44.653Z,67.30
2023-11-30T07:14:15.417Z,67.24
2023-11-30T07:16:46.864Z,67.39
2023-11-30T07:19:20.190Z,67.14
2023-11-30T07:21:52.638Z,67.17
2023-11-30T07:24:23.438Z,67.34
2023-11-30T07:26:54.274Z,67.34
2023-11-30T07:29:27.134Z,67.38
2023-11-30T07:31:59.552Z,67.71
2023-11-30T07:34:30.589Z,67.56
2023-11-30T07:37:02.623Z,67.47
2023-11-30T07:39:33.418Z,67.37
2023-11-30T07:42:07.576Z,67.06
2023-11-30T07:44:39.819Z,67.03
2023-11-30T07:47:12.237Z,67.42
2023-11-30T07:49:43.192Z,67.49
2023-11-30T07:52:14.639Z,67.35
2023-11-30T07:54:45.604Z,67.60
2023-11-30T07:57:19.796Z,67.19
2023-11-30T07:59:50.858Z,67.59
2023-11-30T08:02:23.105Z,67.33
2023-11-30T08:04:54.168Z,67.43
2023-11-30T08:07:25.101Z,67.71
2023-11-30T08:09:55.894Z,67.38
2023-11-30T08:12:27.036Z,67.48
2023-11-30T08:14:57.879Z,67.74
2023-11-30T08:17:29.497Z,67.78
2023-11-30T08:20:03.955Z,67.62
2023-11-30T08:22:35.022Z,67.51
2023-11-30T08:25:06.785Z,67.50
2023-11-30T08:27:38.014Z,67.50
2023-11-30T08:30:15.936Z,67.40
2023-11-30T08:32:47.297Z,67.24
2023-11-30T08:35:19.707Z,67.09
2023-11-30T08:37:50.555Z,66.83
2023-11-30T08:40:23.764Z,66.79
2023-11-30T08:42:54.936Z,66.51
2023-11-30T08:45:28.771Z,66.48
2023-11-30T08:47:59.678Z,66.29
2023-11-30T08:50:30.993Z,66.19
2023-11-30T08:53:01.760Z,66.00
2023-11-30T08:55:34.098Z,65.83
2023-11-30T08:58:05.766Z,65.44
2023-11-30T09:00:36.779Z,65.19
2023-11-30T09:03:07.607Z,64.81
2023-11-30T09:05:38.382Z,64.17
2023-11-30T09:08:10.495Z,64.16
2023-11-30T09:10:41.395Z,64.04
2023-11-30T09:13:12.580Z,64.08
2023-11-30T09:15:43.676Z,63.55
2023-11-30T09:18:14.641Z,62.25
2023-11-30T09:20:45.469Z,61.29
2023-11-30T09:23:19.063Z,60.99
2023-11-30T09:25:50.089Z,60.65
2023-11-30T09:28:21.302Z,59.97
2023-11-30T09:30:52.253Z,59.17
2023-11-30T09:33:23.170Z,58.23
2023-11-30T09:35:54.125Z,57.50
2023-11-30T09:38:24.839Z,57.24
2023-11-30T09:40:56.578Z,57.25
2023-11-30T09:43:27.382Z,57.14
2023-11-30T09:45:58.187Z,57.30
2023-11-30T09:48:31.915Z,56.99
2023-11-30T09:51:03.462Z,56.79
2023-11-30T09:53:35.796Z,56.73
2023-11-30T09:56:07.396Z,56.92
2023-11-30T09:58:38.797Z,57.15
2023-11-30T10:01:11.555Z,57.42
2023-11-30T10:03:45.140Z,57.29
2023-11-30T10:06:16.421Z,57.67
2023-11-30T10:08:47.422Z,57.94
2023-11-30T10:11:21.144Z,57.93
2023-11-30T10:13:52.021Z,57.82
2023-11-30T10:16:23.310Z,57.80
2023-11-30T10:18:54.435Z,57.74
2023-11-30T10:21:25.429Z,57.10
2023-11-30T10:23:58.143Z,57.23
2023-11-30T10:26:32.395Z,57.45
2023-11-30T10:29:07.996Z,57.36
2023-11-30T10:31:40.445Z,57.91
2023-11-30T10:34:16.840Z,58.03
2023-11-30T10:36:48.381Z,57.71
2023-11-30T10:39:24.566Z,57.75
2023-11-30T10:41:58.846Z,57.88
2023-11-30T10:44:32.054Z,58.06
2023-11-30T10:47:03.496Z,58.21
2023-11-30T10:49:34.616Z,58.45
2023-11-30T10:52:07.880Z,58.66
2023-11-30T10:54:45.273Z,59.21
2023-11-30T10:57:16.629Z,58.96
2023-11-30T10:59:49.219Z,59.23
2023-11-30T11:02:20.193Z,59.50
2023-11-30T11:04:51.064Z,59.55
2023-11-30T11:07:22.652Z,59.79
2023-11-30T11:09:58.636Z,59.87
2023-11-30T11:12:41.428Z,59.85
2023-11-30T11:15:16.744Z,59.87
2023-11-30T11:17:53.352Z,59.09
2023-11-30T11:20:27.073Z,59.26
2023-11-30T11:22:59.335Z,59.66
2023-11-30T11:25:30.199Z,59.49
2023-11-30T11:28:02.003Z,59.91
2023-11-30T11:30:33.546Z,60.10
2023-11-30T11:33:06.378Z,59.67
2023-11-30T11:35:37.192Z,59.98
2023-11-30T11:38:07.976Z,60.16
2023-11-30T11:40:42.366Z,59.85
2023-11-30T11:43:13.118Z,59.74
2023-11-30T11:45:44.298Z,59.66
2023-11-30T11:48:18.467Z,60.14
2023-11-30T11:50:59.520Z,60.20
2023-11-30T11:53:30.353Z,59.88
2023-11-30T11:56:07.843Z,60.09
2023-11-30T11:58:40.433Z,60.10
2023-11-30T12:01:11.260Z,60.39
2023-11-30T12:03:51.599Z,60.21
2023-11-30T12:06:32.089Z,60.45
2023-11-30T12:09:14.257Z,60.11
2023-11-30T12:11:45.394Z,60.12
2023-11-30T12:14:16.832Z,60.09
2023-11-30T12:16:47.725Z,60.33
2023-11-30T12:19:21.143Z,60.42
2023-11-30T12:21:52.284Z,60.50
2023-11-30T12:24:23.621Z,60.63
2023-11-30T12:26:54.512Z,60.68
2023-11-30T12:29:25.365Z,60.38
2023-11-30T12:31:57.038Z,60.53
2023-11-30T12:34:28.071Z,60.47
2023-11-30T12:37:04.562Z,60.35
2023-11-30T12:39:35.650Z,60.67
2023-11-30T12:42:09.101Z,60.72
2023-11-30T12:44:39.827Z,60.92
2023-11-30T12:47:11.976Z,60.75
2023-11-30T12:49:43.575Z,60.97
2023-11-30T12:52:14.486Z,61.10
2023-11-30T12:54:45.720Z,61.13
2023-11-30T12:57:16.560Z,61.16
2023-11-30T12:59:47.817Z,60.91
2023-11-30T13:02:18.800Z,61.26
2023-11-30T13:04:51.076Z,61.17
2023-11-30T13:07:24.730Z,61.31
2023-11-30T13:09:55.587Z,61.09
2023-11-30T13:12:27.946Z,61.33
2023-11-30T13:14:58.982Z,61.37
2023-11-30T13:17:29.782Z,61.29
2023-11-30T13:20:00.533Z,61.33
2023-11-30T13:22:31.333Z,61.47
2023-11-30T13:25:02.772Z,61.70
2023-11-30T13:27:34.328Z,61.46
2023-11-30T13:30:05.530Z,61.53
2023-11-30T13:32:36.670Z,61.65
2023-11-30T13:35:10.344Z,61.54
2023-11-30T13:37:41.313Z,61.61
2023-11-30T13:40:13.286Z,61.74
2023-11-30T13:42:44.277Z,61.56
2023-11-30T13:45:15.381Z,61.57
2023-11-30T13:47:49.028Z,61.88
2023-11-30T13:50:30.461Z,61.84
2023-11-30T13:53:11.696Z,61.57
2023-11-30T13:55:43.790Z,61.57
2023-11-30T13:58:14.573Z,61.39
2023-11-30T14:00:45.426Z,61.33
2023-11-30T14:03:17.653Z,61.17
2023-11-30T14:05:48.844Z,61.13
2023-11-30T14:08:19.678Z,61.25
2023-11-30T14:10:52.396Z,61.09
2023-11-30T14:13:23.375Z,61.03
2023-11-30T14:15:54.293Z,61.02
2023-11-30T14:18:25.330Z,60.86
2023-11-30T14:20:56.302Z,60.96
2023-11-30T14:23:28.230Z,61.02
2023-11-30T14:26:01.305Z,61.04
2023-11-30T14:28:32.423Z,61.16
2023-11-30T14:31:06.618Z,61.23
2023-11-30T14:33:37.450Z,61.11
2023-11-30T14:36:09.482Z,61.43
2023-11-30T14:38:41.744Z,61.45
2023-11-30T14:41:12.843Z,61.52
2023-11-30T14:43:43.850Z,61.54
2023-11-30T14:46:15.370Z,61.48
2023-11-30T14:48:46.214Z,61.71
2023-11-30T14:51:17.080Z,61.62
2023-11-30T14:53:48.567Z,61.74
2023-11-30T14:56:19.343Z,61.75
2023-11-30T14:58:50.166Z,61.72
2023-11-30T15:01:21.354Z,61.67
2023-11-30T15:03:52.425Z,61.78
2023-11-30T15:06:24.699Z,61.89
2023-11-30T15:08:55.459Z,61.80
2023-11-30T15:11:26.363Z,61.78
2023-11-30T15:13:58.216Z,61.91
2023-11-30T15:16:30.177Z,61.93
2023-11-30T15:19:05.217Z,61.84
2023-11-30T15:21:36.219Z,61.91
2023-11-30T15:24:07.585Z,61.94
2023-11-30T15:26:38.365Z,61.92
2023-11-30T15:29:09.218Z,61.82
2023-11-30T15:31:40.077Z,61.75
2023-11-30T15:34:11.214Z,61.85
2023-11-30T15:36:45.367Z,61.83
2023-11-30T15:39:17.503Z,62.01
2023-11-30T15:41:48.573Z,62.15
2023-11-30T15:44:19.397Z,62.09
2023-11-30T15:46:51.113Z,62.12
2023-11-30T15:49:22.062Z,62.18
2023-11-30T15:51:52.841Z,62.34
2023-11-30T15:54:23.635Z,62.18
2023-11-30T15:56:54.561Z,62.15
2023-11-30T15:59:25.337Z,62.21
2023-11-30T16:01:56.356Z,62.24
2023-11-30T16:04:27.267Z,62.43
2023-11-30T16:06:58.119Z,62.54
2023-11-30T16:09:28.950Z,62.53
2023-11-30T16:12:00.180Z,62.50
2023-11-30T16:14:31.058Z,62.70
2023-11-30T16:17:03.226Z,62.81
2023-11-30T16:19:36.835Z,62.96
2023-11-30T16:22:07.792Z,63.04
2023-11-30T16:24:38.568Z,63.10
2023-11-30T16:27:09.993Z,63.22
2023-11-30T16:29:40.858Z,63.32
2023-11-30T16:32:11.938Z,63.50
2023-11-30T16:34:44.054Z,63.62
2023-11-30T16:37:14.928Z,63.55
2023-11-30T16:39:47.186Z,63.61
2023-11-30T16:42:18.044Z,63.67
2023-11-30T16:44:51.803Z,63.83
2023-11-30T16:47:22.580Z,63.94
2023-11-30T16:49:53.323Z,63.97
2023-11-30T16:52:24.126Z,64.14
2023-11-30T16:54:55.056Z,64.35
2023-11-30T16:57:25.926Z,64.36
2023-11-30T16:59:57.464Z,64.37
2023-11-30T17:02:29.200Z,64.55
2023-11-30T17:05:00.177Z,64.60
2023-11-30T17:07:31.033Z,64.60
2023-11-30T17:10:01.924Z,64.61
2023-11-30T17:12:32.871Z,64.71
2023-11-30T17:15:05.027Z,64.70
2023-11-30T17:17:37.195Z,64.74
2023-11-30T17:20:09.731Z,64.62
2023-11-30T17:22:40.530Z,64.63
2023-11-30T17:25:12.216Z,64.88
2023-11-30T17:27:42.989Z,64.80
2023-11-30T17:30:15.331Z,64.86
2023-11-30T17:32:46.247Z,64.91
2023-11-30T17:35:17.810Z,64.85
2023-11-30T17:37:48.886Z,64.97
2023-11-30T17:40:20.137Z,64.94
2023-11-30T17:42:51.169Z,64.97
2023-11-30T17:45:22.174Z,64.91
2023-11-30T17:47:55.028Z,65.11
2023-11-30T17:50:28.529Z,65.02
2023-11-30T17:52:59.451Z,65.08
2023-11-30T17:55:32.047Z,65.13
2023-11-30T17:58:03.410Z,65.20
2023-11-30T18:00:36.064Z,65.20
2023-11-30T18:03:07.133Z,65.30
2023-11-30T18:05:50.054Z,65.22
2023-11-30T18:08:24.308Z,65.22
2023-11-30T18:10:57.057Z,65.08
2023-11-30T18:13:29.965Z,65.13
2023-11-30T18:16:03.690Z,65.25
2023-11-30T18:18:35.163Z,65.20
2023-11-30T18:21:06.639Z,65.18
2023-11-30T18:23:37.851Z,65.22
2023-11-30T18:26:10.979Z,65.15
2023-11-30T18:28:47.779Z,65.16
2023-11-30T18:31:22.534Z,65.17
2023-11-30T18:33:55.019Z,65.39
2023-11-30T18:36:30.251Z,65.31
2023-11-30T18:39:00.065Z,65.29
2023-11-30T18:41:31.052Z,65.38
2023-11-30T18:44:06.096Z,65.46
2023-11-30T18:46:39.842Z,65.33
2023-11-30T18:49:10.959Z,65.44
2023-11-30T18:51:42.044Z,65.55
2023-11-30T18:54:18.718Z,65.49
2023-11-30T18:56:49.776Z,65.31
2023-11-30T18:59:21.926Z,65.35
2023-11-30T19:01:53.040Z,65.52
2023-11-30T19:04:24.118Z,65.61
2023-11-30T19:06:56.003Z,65.53
2023-11-30T19:09:27.242Z,65.48
2023-11-30T19:12:00.205Z,65.39
2023-11-30T19:14:40.746Z,65.49
2023-11-30T19:17:11.721Z,65.71
2023-11-30T19:19:42.636Z,65.70
2023-11-30T19:22:18.351Z,65.64
2023-11-30T19:24:54.177Z,65.50
2023-11-30T19:27:25.131Z,65.62
2023-11-30T19:29:56.259Z,65.67
2023-11-30T19:32:31.359Z,65.53
2023-11-30T19:35:02.928Z,65.61
2023-11-30T19:37:33.904Z,65.57
2023-11-30T19:40:05.427Z,65.50
2023-11-30T19:42:36.401Z,65.61
2023-11-30T19:45:09.012Z,65.66
2023-11-30T19:47:42.256Z,65.57
2023-11-30T19:50:13.475Z,65.62
2023-11-30T19:52:44.287Z,65.67
2023-11-30T19:55:16.088Z,65.68
2023-11-30T19:57:53.995Z,65.57
2023-11-30T20:00:26.169Z,65.69
2023-11-30T20:02:57.861Z,65.69
2023-11-30T20:05:28.830Z,65.63
2023-11-30T20:08:00.561Z,65.47
2023-11-30T20:10:32.281Z,65.61
2023-11-30T20:13:05.123Z,65.45
2023-11-30T20:15:36.276Z,65.50
2023-11-30T20:18:09.917Z,65.63
2023-11-30T20:20:40.885Z,65.58
2023-11-30T20:23:11.779Z,65.62
2023-11-30T20:25:42.789Z,65.63
2023-11-30T20:28:13.935Z,65.70
2023-11-30T20:30:47.763Z,65.61
2023-11-30T20:33:18.713Z,65.47
2023-11-30T20:35:49.755Z,65.58
2023-11-30T20:38:20.624Z,65.56
2023-11-30T20:40:52.150Z,65.38
2023-11-30T20:43:27.417Z,65.41
2023-11-30T20:45:59.051Z,65.33
2023-11-30T20:48:30.188Z,65.62
2023-11-30T20:51:01.347Z,65.42
2023-11-30T20:53:32.174Z,65.40
2023-11-30T20:56:03.976Z,65.48
2023-11-30T20:58:40.049Z,65.46
2023-11-30T21:01:13.065Z,65.66
2023-11-30T21:11:59.617Z,65.68
2023-11-30T21:14:31.224Z,65.71
2023-11-30T21:17:02.785Z,65.79
2023-11-30T21:19:34.241Z,65.63
2023-11-30T21:22:06.143Z,65.75
2023-11-30T21:24:39.967Z,65.80
2023-11-30T21:27:12.076Z,65.91
2023-11-30T21:29:43.611Z,65.99
2023-11-30T21:32:15.057Z,65.91
2023-11-30T21:34:46.942Z,65.76
2023-11-30T21:37:18.281Z,65.96
2023-11-30T21:39:49.846Z,65.90
2023-11-30T21:42:24.753Z,65.83
2023-11-30T21:44:56.500Z,65.75
2023-11-30T21:47:28.239Z,65.67
2023-11-30T21:49:59.755Z,65.74
2023-11-30T21:52:31.281Z,65.77
2023-11-30T21:55:08.139Z,65.75
2023-11-30T21:57:39.727Z,65.74
2023-11-30T22:00:13.635Z,65.73
2023-11-30T22:02:46.403Z,65.79
2023-11-30T22:05:26.786Z,65.85
2023-11-30T22:08:04.442Z,65.71
2023-11-30T22:10:35.745Z,65.75
2023-11-30T22:13:07.047Z,65.65
2023-11-30T22:15:38.539Z,65.76
2023-11-30T22:18:09.936Z,65.91
2023-11-30T22:20:44.940Z,65.88
2023-11-30T22:23:16.366Z,66.00
2023-11-30T22:25:53.341Z,65.93
2023-11-30T22:28:27.470Z,65.96
2023-11-30T22:30:59.015Z,65.93
2023-11-30T22:33:31.354Z,65.96
2023-11-30T22:36:02.968Z,66.15
2023-11-30T22:38:41.183Z,66.23
2023-11-30T22:41:17.358Z,66.22
2023-11-30T22:43:48.607Z,66.26
2023-11-30T22:46:20.899Z,66.40
2023-11-30T22:48:52.661Z,66.31
2023-11-30T22:51:24.920Z,66.42
2023-11-30T22:53:56.214Z,66.44
2023-11-30T22:56:30.284Z,66.55
2023-11-30T22:59:01.641Z,66.43
2023-11-30T23:01:33.045Z,66.49
2023-11-30T23:04:04.762Z,66.50
2023-11-30T23:06:36.373Z,66.52
2023-11-30T23:09:08.003Z,66.61
2023-11-30T23:11:39.287Z,66.63
2023-11-30T23:14:11.259Z,66.58
2023-11-30T23:16:42.537Z,66.60
2023-11-30T23:19:14.914Z,66.52
2023-11-30T23:21:46.619Z,66.47
2023-11-30T23:24:25.744Z,66.49
2023-11-30T23:27:00.544Z,66.42
2023-11-30T23:29:36.995Z,66.41
2023-11-30T23:32:09.845Z,66.46
2023-11-30T23:34:41.500Z,66.34
2023-11-30T23:37:13.016Z,66.38
2023-11-30T23:39:44.674Z,66.43
2023-11-30T23:42:16.015Z,66.45
2023-11-30T23:44:47.691Z,66.47
2023-11-30T23:47:18.970Z,66.48
2023-11-30T23:49:50.198Z,66.59
2023-11-30T23:52:21.492Z,66.57
2023-11-30T23:54:52.786Z,66.60
2023-11-30T23:57:24.103Z,66.65
2023-11-30T23:59:55.488Z,66.39
